Tyrone, Oklahoma
Current Conditions -  °F | °C
As of 2:55 AM on Friday 24 Oct 2014 (Local Time) from KLBL Reporting Station
Clear Clear  
Wind Chill: 57°   Ceiling: Unl
Heat Index: 57°   Visibility: 10mi
Dew Point: 52°   Wind: 6mph
Humidity: 82%   Direction: 210°SSW
Pressure: 30.1"   Gusts: NA
Location:  36.95°N, 101.07°W
Report Text: KLBL 240755Z AUTO 21005KT 10SM CLR 14/11 A3010 RMK AO1
Loading
Personal Weather Stations






























Interactive Weather Map
Tropical Storm Tracking
New forecast layout! Learn more

10-Day Weather Forecast

Advertisements
Track Severe Weather on mobile